Terminal Aerodrome Forecast
Issued by NWS Duluth, MN

Home | Current Version | Previous Version | Text Only | Print | Product List | Glossary On
Versions: 1 2 3 4 5 6 7 8 9 10 11 12 13 14 15 16 17 18 19 20 21 22 23 24 25 26 27 28 29 30 31 32 33 34 35 36 37 38 39 40 41 42 43 44 45 46 47
865
FTUS43 KDLH 251725
TAFDLH
TAF
KDLH 251725Z 2518/2618 09016G23KT P6SM BKN006 OVC028
     FM252100 09016G23KT P6SM BKN011 OVC030
     FM260000 08013KT P6SM BKN025
     FM260600 07012KT P6SM SCT006 BKN014
     FM261400 07012G16KT P6SM VCSH BKN005 OVC014=

USA.gov is the U.S. government's official web portal to all federal, state and local government web resources and services.